sensor_id;sensor_type;location;lat;lon;timestamp;P1;durP1;ratioP1;P2;durP2;ratioP2
58214;SDS011;44011;52.218;1.480;2022-10-30T00:02:07;20.83;;;10.90;;
58214;SDS011;44011;52.218;1.480;2022-10-30T00:04:33;20.63;;;10.60;;
58214;SDS011;44011;52.218;1.480;2022-10-30T00:06:58;22.15;;;9.93;;
58214;SDS011;44011;52.218;1.480;2022-10-30T00:09:24;20.05;;;10.63;;
58214;SDS011;44011;52.218;1.480;2022-10-30T00:11:49;32.30;;;11.32;;
58214;SDS011;44011;52.218;1.480;2022-10-30T00:14:15;29.30;;;12.82;;
58214;SDS011;44011;52.218;1.480;2022-10-30T00:16:40;23.85;;;10.82;;
58214;SDS011;44011;52.218;1.480;2022-10-30T00:19:06;21.40;;;10.13;;
58214;SDS011;44011;52.218;1.480;2022-10-30T00:21:31;29.38;;;11.45;;
58214;SDS011;44011;52.218;1.480;2022-10-30T00:23:57;16.42;;;9.50;;
58214;SDS011;44011;52.218;1.480;2022-10-30T00:26:22;21.75;;;9.98;;
58214;SDS011;44011;52.218;1.480;2022-10-30T00:28:52;21.58;;;10.18;;
58214;SDS011;44011;52.218;1.480;2022-10-30T00:31:18;18.95;;;9.88;;
58214;SDS011;44011;52.218;1.480;2022-10-30T00:33:47;17.98;;;9.73;;
58214;SDS011;44011;52.218;1.480;2022-10-30T00:36:14;24.88;;;11.05;;
58214;SDS011;44011;52.218;1.480;2022-10-30T00:38:39;20.67;;;9.77;;
58214;SDS011;44011;52.218;1.480;2022-10-30T00:41:04;20.95;;;10.30;;
58214;SDS011;44011;52.218;1.480;2022-10-30T00:46:07;17.38;;;9.98;;
58214;SDS011;44011;52.218;1.480;2022-10-30T00:48:40;17.58;;;9.45;;
58214;SDS011;44011;52.218;1.480;2022-10-30T00:51:07;21.23;;;10.30;;
58214;SDS011;44011;52.218;1.480;2022-10-30T00:53:34;15.90;;;9.65;;
58214;SDS011;44011;52.218;1.480;2022-10-30T00:56:01;22.00;;;9.60;;
58214;SDS011;44011;52.218;1.480;2022-10-30T00:58:31;19.55;;;10.57;;
58214;SDS011;44011;52.218;1.480;2022-10-30T01:00:59;17.50;;;9.55;;
58214;SDS011;44011;52.218;1.480;2022-10-30T01:03:25;16.73;;;9.05;;
58214;SDS011;44011;52.218;1.480;2022-10-30T01:05:53;24.92;;;10.00;;
58214;SDS011;44011;52.218;1.480;2022-10-30T01:08:20;21.67;;;9.32;;
58214;SDS011;44011;52.218;1.480;2022-10-30T01:10:46;20.67;;;10.00;;
58214;SDS011;44011;52.218;1.480;2022-10-30T01:13:12;22.17;;;10.93;;
58214;SDS011;44011;52.218;1.480;2022-10-30T01:15:39;18.65;;;9.60;;
58214;SDS011;44011;52.218;1.480;2022-10-30T01:18:10;20.77;;;9.82;;
58214;SDS011;44011;52.218;1.480;2022-10-30T01:23:24;16.08;;;8.13;;
58214;SDS011;44011;52.218;1.480;2022-10-30T01:36:42;12.02;;;7.63;;
58214;SDS011;44011;52.218;1.480;2022-10-30T01:39:21;16.00;;;7.95;;
58214;SDS011;44011;52.218;1.480;2022-10-30T01:41:48;13.38;;;7.22;;
58214;SDS011;44011;52.218;1.480;2022-10-30T01:44:17;15.90;;;8.27;;
58214;SDS011;44011;52.218;1.480;2022-10-30T01:49:35;18.25;;;8.75;;
58214;SDS011;44011;52.218;1.480;2022-10-30T01:55:01;17.92;;;6.78;;
58214;SDS011;44011;52.218;1.480;2022-10-30T01:57:45;15.48;;;7.95;;
58214;SDS011;44011;52.218;1.480;2022-10-30T02:00:16;16.63;;;7.22;;
58214;SDS011;44011;52.218;1.480;2022-10-30T02:02:42;16.30;;;7.57;;
58214;SDS011;44011;52.218;1.480;2022-10-30T02:05:09;21.42;;;7.15;;
58214;SDS011;44011;52.218;1.480;2022-10-30T02:07:37;17.92;;;7.22;;
58214;SDS011;44011;52.218;1.480;2022-10-30T02:10:03;13.32;;;6.90;;
58214;SDS011;44011;52.218;1.480;2022-10-30T02:12:28;11.27;;;8.02;;
58214;SDS011;44011;52.218;1.480;2022-10-30T02:14:55;16.50;;;7.25;;
58214;SDS011;44011;52.218;1.480;2022-10-30T02:17:22;12.90;;;7.20;;
58214;SDS011;44011;52.218;1.480;2022-10-30T02:19:48;12.63;;;6.88;;
58214;SDS011;44011;52.218;1.480;2022-10-30T02:22:14;14.13;;;6.40;;
58214;SDS011;44011;52.218;1.480;2022-10-30T02:24:40;11.90;;;6.93;;
58214;SDS011;44011;52.218;1.480;2022-10-30T02:27:06;12.35;;;6.40;;
58214;SDS011;44011;52.218;1.480;2022-10-30T02:29:31;11.85;;;6.20;;
58214;SDS011;44011;52.218;1.480;2022-10-30T02:31:57;12.00;;;5.78;;
58214;SDS011;44011;52.218;1.480;2022-10-30T02:34:22;11.85;;;6.88;;
58214;SDS011;44011;52.218;1.480;2022-10-30T02:36:48;13.23;;;6.63;;
58214;SDS011;44011;52.218;1.480;2022-10-30T02:39:13;9.27;;;5.97;;
58214;SDS011;44011;52.218;1.480;2022-10-30T02:41:38;15.80;;;6.53;;
58214;SDS011;44011;52.218;1.480;2022-10-30T02:44:04;15.52;;;6.45;;
58214;SDS011;44011;52.218;1.480;2022-10-30T02:46:31;10.75;;;5.43;;
58214;SDS011;44011;52.218;1.480;2022-10-30T02:48:56;13.20;;;6.10;;
58214;SDS011;44011;52.218;1.480;2022-10-30T02:51:22;14.15;;;6.43;;
58214;SDS011;44011;52.218;1.480;2022-10-30T02:53:48;15.00;;;6.22;;
58214;SDS011;44011;52.218;1.480;2022-10-30T02:56:13;10.98;;;5.82;;
58214;SDS011;44011;52.218;1.480;2022-10-30T02:58:39;10.25;;;5.85;;
58214;SDS011;44011;52.218;1.480;2022-10-30T03:01:09;11.95;;;5.40;;
58214;SDS011;44011;52.218;1.480;2022-10-30T03:03:36;13.93;;;6.45;;
58214;SDS011;44011;52.218;1.480;2022-10-30T03:06:02;6.95;;;4.65;;
58214;SDS011;44011;52.218;1.480;2022-10-30T03:08:29;15.50;;;6.05;;
58214;SDS011;44011;52.218;1.480;2022-10-30T03:11:01;17.38;;;6.13;;
58214;SDS011;44011;52.218;1.480;2022-10-30T03:13:31;11.77;;;5.70;;
58214;SDS011;44011;52.218;1.480;2022-10-30T03:16:01;9.88;;;5.20;;
58214;SDS011;44011;52.218;1.480;2022-10-30T03:18:30;10.95;;;5.72;;
58214;SDS011;44011;52.218;1.480;2022-10-30T03:20:56;12.60;;;6.10;;
58214;SDS011;44011;52.218;1.480;2022-10-30T03:23:23;11.43;;;5.75;;
58214;SDS011;44011;52.218;1.480;2022-10-30T03:25:50;13.48;;;6.10;;
58214;SDS011;44011;52.218;1.480;2022-10-30T03:28:20;15.10;;;6.53;;
58214;SDS011;44011;52.218;1.480;2022-10-30T03:30:47;15.90;;;6.15;;
58214;SDS011;44011;52.218;1.480;2022-10-30T03:33:12;18.70;;;7.10;;
58214;SDS011;44011;52.218;1.480;2022-10-30T03:35:38;10.63;;;6.05;;
58214;SDS011;44011;52.218;1.480;2022-10-30T03:38:03;11.20;;;6.20;;
58214;SDS011;44011;52.218;1.480;2022-10-30T03:40:29;12.10;;;6.03;;
58214;SDS011;44011;52.218;1.480;2022-10-30T03:42:54;9.52;;;5.50;;
58214;SDS011;44011;52.218;1.480;2022-10-30T03:45:19;19.52;;;5.93;;
58214;SDS011;44011;52.218;1.480;2022-10-30T03:47:45;13.57;;;6.13;;
58214;SDS011;44011;52.218;1.480;2022-10-30T03:50:10;14.30;;;7.15;;
58214;SDS011;44011;52.218;1.480;2022-10-30T03:52:36;13.30;;;5.55;;
58214;SDS011;44011;52.218;1.480;2022-10-30T03:55:01;13.40;;;6.78;;
58214;SDS011;44011;52.218;1.480;2022-10-30T03:57:27;13.25;;;6.90;;
58214;SDS011;44011;52.218;1.480;2022-10-30T03:59:52;10.68;;;5.78;;
58214;SDS011;44011;52.218;1.480;2022-10-30T04:02:18;11.23;;;5.97;;
58214;SDS011;44011;52.218;1.480;2022-10-30T04:04:43;14.35;;;5.95;;
58214;SDS011;44011;52.218;1.480;2022-10-30T04:07:09;14.57;;;6.53;;
58214;SDS011;44011;52.218;1.480;2022-10-30T04:09:34;10.80;;;6.45;;
58214;SDS011;44011;52.218;1.480;2022-10-30T04:11:59;19.73;;;6.57;;
58214;SDS011;44011;52.218;1.480;2022-10-30T04:14:25;13.80;;;6.35;;
58214;SDS011;44011;52.218;1.480;2022-10-30T04:16:50;12.88;;;5.68;;
58214;SDS011;44011;52.218;1.480;2022-10-30T04:19:16;19.15;;;6.75;;
58214;SDS011;44011;52.218;1.480;2022-10-30T04:21:41;16.20;;;7.53;;
58214;SDS011;44011;52.218;1.480;2022-10-30T04:24:08;15.75;;;6.35;;
58214;SDS011;44011;52.218;1.480;2022-10-30T04:26:33;15.52;;;5.97;;
58214;SDS011;44011;52.218;1.480;2022-10-30T04:28:59;14.75;;;5.90;;
58214;SDS011;44011;52.218;1.480;2022-10-30T04:31:24;12.48;;;5.47;;
58214;SDS011;44011;52.218;1.480;2022-10-30T04:33:49;12.93;;;5.75;;
58214;SDS011;44011;52.218;1.480;2022-10-30T04:36:15;17.08;;;6.32;;
58214;SDS011;44011;52.218;1.480;2022-10-30T04:38:42;14.07;;;6.45;;
58214;SDS011;44011;52.218;1.480;2022-10-30T04:41:07;12.32;;;6.57;;
58214;SDS011;44011;52.218;1.480;2022-10-30T04:43:33;20.58;;;6.85;;
58214;SDS011;44011;52.218;1.480;2022-10-30T04:45:58;12.70;;;6.28;;
58214;SDS011;44011;52.218;1.480;2022-10-30T04:48:24;17.23;;;6.75;;
58214;SDS011;44011;52.218;1.480;2022-10-30T04:50:49;18.00;;;6.47;;
58214;SDS011;44011;52.218;1.480;2022-10-30T04:53:15;12.90;;;6.00;;
58214;SDS011;44011;52.218;1.480;2022-10-30T04:55:42;12.27;;;5.60;;
58214;SDS011;44011;52.218;1.480;2022-10-30T04:58:08;20.30;;;6.78;;
58214;SDS011;44011;52.218;1.480;2022-10-30T05:00:34;14.57;;;6.63;;
58214;SDS011;44011;52.218;1.480;2022-10-30T05:03:00;13.88;;;7.47;;
58214;SDS011;44011;52.218;1.480;2022-10-30T05:05:29;15.30;;;6.72;;
58214;SDS011;44011;52.218;1.480;2022-10-30T05:07:55;15.32;;;7.95;;
58214;SDS011;44011;52.218;1.480;2022-10-30T05:10:21;15.77;;;6.90;;
58214;SDS011;44011;52.218;1.480;2022-10-30T05:12:47;15.63;;;7.18;;
58214;SDS011;44011;52.218;1.480;2022-10-30T05:15:12;16.73;;;7.32;;
58214;SDS011;44011;52.218;1.480;2022-10-30T05:17:38;15.27;;;7.55;;
58214;SDS011;44011;52.218;1.480;2022-10-30T05:20:04;17.33;;;7.90;;
58214;SDS011;44011;52.218;1.480;2022-10-30T05:22:30;14.85;;;7.55;;
58214;SDS011;44011;52.218;1.480;2022-10-30T05:24:56;20.02;;;7.22;;
58214;SDS011;44011;52.218;1.480;2022-10-30T05:27:21;19.27;;;8.57;;
58214;SDS011;44011;52.218;1.480;2022-10-30T05:29:47;18.60;;;7.47;;
58214;SDS011;44011;52.218;1.480;2022-10-30T05:32:12;15.20;;;8.38;;
58214;SDS011;44011;52.218;1.480;2022-10-30T05:34:38;16.67;;;8.55;;
58214;SDS011;44011;52.218;1.480;2022-10-30T05:37:03;20.67;;;7.65;;
58214;SDS011;44011;52.218;1.480;2022-10-30T05:39:29;18.23;;;7.70;;
58214;SDS011;44011;52.218;1.480;2022-10-30T05:41:55;18.90;;;7.82;;
58214;SDS011;44011;52.218;1.480;2022-10-30T05:44:20;17.67;;;7.15;;
58214;SDS011;44011;52.218;1.480;2022-10-30T05:46:46;18.08;;;7.97;;
58214;SDS011;44011;52.218;1.480;2022-10-30T05:49:11;13.75;;;8.13;;
58214;SDS011;44011;52.218;1.480;2022-10-30T05:51:37;19.58;;;8.20;;
58214;SDS011;44011;52.218;1.480;2022-10-30T05:54:02;19.98;;;8.32;;
58214;SDS011;44011;52.218;1.480;2022-10-30T05:56:28;18.63;;;7.97;;
58214;SDS011;44011;52.218;1.480;2022-10-30T05:58:53;17.38;;;8.23;;
58214;SDS011;44011;52.218;1.480;2022-10-30T06:01:19;17.30;;;8.57;;
58214;SDS011;44011;52.218;1.480;2022-10-30T06:03:44;22.83;;;10.23;;
58214;SDS011;44011;52.218;1.480;2022-10-30T06:06:10;15.85;;;8.77;;
58214;SDS011;44011;52.218;1.480;2022-10-30T06:08:35;14.30;;;6.70;;
58214;SDS011;44011;52.218;1.480;2022-10-30T06:11:01;17.08;;;6.70;;
58214;SDS011;44011;52.218;1.480;2022-10-30T06:13:27;19.10;;;9.32;;
58214;SDS011;44011;52.218;1.480;2022-10-30T06:15:55;20.25;;;6.95;;
58214;SDS011;44011;52.218;1.480;2022-10-30T06:18:21;18.02;;;7.53;;
58214;SDS011;44011;52.218;1.480;2022-10-30T06:20:47;16.55;;;6.35;;
58214;SDS011;44011;52.218;1.480;2022-10-30T06:23:12;18.40;;;7.05;;
58214;SDS011;44011;52.218;1.480;2022-10-30T06:25:38;20.25;;;6.63;;
58214;SDS011;44011;52.218;1.480;2022-10-30T06:28:03;25.02;;;6.13;;
58214;SDS011;44011;52.218;1.480;2022-10-30T06:30:29;22.30;;;7.40;;
58214;SDS011;44011;52.218;1.480;2022-10-30T06:33:04;14.82;;;5.97;;
58214;SDS011;44011;52.218;1.480;2022-10-30T06:35:30;14.93;;;6.40;;
58214;SDS011;44011;52.218;1.480;2022-10-30T06:37:56;15.05;;;5.53;;
58214;SDS011;44011;52.218;1.480;2022-10-30T06:40:24;19.75;;;6.00;;
58214;SDS011;44011;52.218;1.480;2022-10-30T06:42:51;15.32;;;5.95;;
58214;SDS011;44011;52.218;1.480;2022-10-30T06:45:18;12.85;;;5.30;;
58214;SDS011;44011;52.218;1.480;2022-10-30T06:47:44;18.63;;;5.43;;
58214;SDS011;44011;52.218;1.480;2022-10-30T06:50:11;17.75;;;6.30;;
58214;SDS011;44011;52.218;1.480;2022-10-30T06:52:38;14.98;;;5.05;;
58214;SDS011;44011;52.218;1.480;2022-10-30T06:55:04;15.02;;;5.13;;
58214;SDS011;44011;52.218;1.480;2022-10-30T06:57:29;15.60;;;4.63;;
58214;SDS011;44011;52.218;1.480;2022-10-30T06:59:55;16.88;;;4.80;;
58214;SDS011;44011;52.218;1.480;2022-10-30T07:02:21;11.50;;;3.95;;
58214;SDS011;44011;52.218;1.480;2022-10-30T07:04:46;11.30;;;4.10;;
58214;SDS011;44011;52.218;1.480;2022-10-30T07:07:12;13.30;;;3.80;;
58214;SDS011;44011;52.218;1.480;2022-10-30T07:09:38;18.08;;;4.55;;
58214;SDS011;44011;52.218;1.480;2022-10-30T07:12:03;9.77;;;4.13;;
58214;SDS011;44011;52.218;1.480;2022-10-30T07:14:29;9.93;;;3.47;;
58214;SDS011;44011;52.218;1.480;2022-10-30T07:16:55;8.48;;;3.40;;
58214;SDS011;44011;52.218;1.480;2022-10-30T07:19:20;13.85;;;3.35;;
58214;SDS011;44011;52.218;1.480;2022-10-30T07:21:46;13.35;;;3.33;;
58214;SDS011;44011;52.218;1.480;2022-10-30T07:24:12;12.85;;;3.30;;
58214;SDS011;44011;52.218;1.480;2022-10-30T07:26:38;10.00;;;3.85;;
58214;SDS011;44011;52.218;1.480;2022-10-30T07:29:03;9.65;;;3.40;;
58214;SDS011;44011;52.218;1.480;2022-10-30T07:31:29;10.35;;;2.67;;
58214;SDS011;44011;52.218;1.480;2022-10-30T07:33:55;9.75;;;2.78;;
58214;SDS011;44011;52.218;1.480;2022-10-30T07:36:20;16.23;;;3.42;;
58214;SDS011;44011;52.218;1.480;2022-10-30T07:38:52;7.95;;;3.00;;
58214;SDS011;44011;52.218;1.480;2022-10-30T07:41:17;12.75;;;2.63;;
58214;SDS011;44011;52.218;1.480;2022-10-30T07:43:43;11.75;;;3.25;;
58214;SDS011;44011;52.218;1.480;2022-10-30T07:46:09;11.18;;;3.15;;
58214;SDS011;44011;52.218;1.480;2022-10-30T07:48:35;14.90;;;3.15;;
58214;SDS011;44011;52.218;1.480;2022-10-30T07:51:01;11.00;;;2.78;;
58214;SDS011;44011;52.218;1.480;2022-10-30T07:53:27;13.73;;;2.65;;
58214;SDS011;44011;52.218;1.480;2022-10-30T07:55:52;15.63;;;3.15;;
58214;SDS011;44011;52.218;1.480;2022-10-30T07:58:18;6.70;;;2.50;;
58214;SDS011;44011;52.218;1.480;2022-10-30T08:00:43;11.10;;;3.08;;
58214;SDS011;44011;52.218;1.480;2022-10-30T08:03:09;9.98;;;2.60;;
58214;SDS011;44011;52.218;1.480;2022-10-30T08:05:35;8.60;;;2.80;;
58214;SDS011;44011;52.218;1.480;2022-10-30T08:08:01;11.38;;;3.25;;
58214;SDS011;44011;52.218;1.480;2022-10-30T08:10:27;8.00;;;3.15;;
58214;SDS011;44011;52.218;1.480;2022-10-30T08:12:52;14.57;;;3.45;;
58214;SDS011;44011;52.218;1.480;2022-10-30T08:15:18;17.95;;;3.38;;
58214;SDS011;44011;52.218;1.480;2022-10-30T08:17:44;8.85;;;2.83;;
58214;SDS011;44011;52.218;1.480;2022-10-30T08:20:14;11.48;;;2.67;;
58214;SDS011;44011;52.218;1.480;2022-10-30T08:22:47;12.48;;;2.75;;
58214;SDS011;44011;52.218;1.480;2022-10-30T08:25:21;12.35;;;2.47;;
58214;SDS011;44011;52.218;1.480;2022-10-30T08:28:01;11.30;;;2.88;;
58214;SDS011;44011;52.218;1.480;2022-10-30T08:30:30;12.32;;;3.10;;
58214;SDS011;44011;52.218;1.480;2022-10-30T08:32:58;15.50;;;3.10;;
58214;SDS011;44011;52.218;1.480;2022-10-30T08:35:24;9.35;;;2.38;;
58214;SDS011;44011;52.218;1.480;2022-10-30T08:37:53;6.57;;;2.70;;
58214;SDS011;44011;52.218;1.480;2022-10-30T08:40:19;9.95;;;2.28;;
58214;SDS011;44011;52.218;1.480;2022-10-30T08:42:51;9.30;;;3.78;;
58214;SDS011;44011;52.218;1.480;2022-10-30T08:45:18;13.02;;;2.85;;
58214;SDS011;44011;52.218;1.480;2022-10-30T08:47:44;13.88;;;3.22;;
58214;SDS011;44011;52.218;1.480;2022-10-30T08:50:09;12.57;;;3.70;;
58214;SDS011;44011;52.218;1.480;2022-10-30T08:52:34;11.98;;;2.50;;
58214;SDS011;44011;52.218;1.480;2022-10-30T08:55:00;10.82;;;2.63;;
58214;SDS011;44011;52.218;1.480;2022-10-30T08:57:26;13.73;;;2.13;;
58214;SDS011;44011;52.218;1.480;2022-10-30T08:59:51;13.10;;;2.78;;
58214;SDS011;44011;52.218;1.480;2022-10-30T09:02:17;8.90;;;2.20;;
58214;SDS011;44011;52.218;1.480;2022-10-30T09:04:42;6.47;;;1.23;;
58214;SDS011;44011;52.218;1.480;2022-10-30T09:07:08;9.98;;;2.33;;
58214;SDS011;44011;52.218;1.480;2022-10-30T09:09:33;7.50;;;1.23;;
58214;SDS011;44011;52.218;1.480;2022-10-30T09:11:59;3.75;;;0.93;;
58214;SDS011;44011;52.218;1.480;2022-10-30T09:14:24;6.80;;;1.17;;
58214;SDS011;44011;52.218;1.480;2022-10-30T09:16:50;4.15;;;1.13;;
58214;SDS011;44011;52.218;1.480;2022-10-30T09:19:15;7.10;;;1.40;;
58214;SDS011;44011;52.218;1.480;2022-10-30T09:21:41;3.45;;;1.23;;
58214;SDS011;44011;52.218;1.480;2022-10-30T09:24:06;3.80;;;1.08;;
58214;SDS011;44011;52.218;1.480;2022-10-30T09:26:32;3.72;;;1.80;;
58214;SDS011;44011;52.218;1.480;2022-10-30T09:28:57;3.10;;;1.40;;
58214;SDS011;44011;52.218;1.480;2022-10-30T09:31:23;7.30;;;1.38;;
58214;SDS011;44011;52.218;1.480;2022-10-30T09:33:48;4.80;;;1.38;;
58214;SDS011;44011;52.218;1.480;2022-10-30T09:36:14;8.68;;;2.33;;
58214;SDS011;44011;52.218;1.480;2022-10-30T09:38:39;8.45;;;1.77;;
58214;SDS011;44011;52.218;1.480;2022-10-30T09:43:53;13.73;;;2.20;;
58214;SDS011;44011;52.218;1.480;2022-10-30T09:52:01;6.28;;;1.70;;
58214;SDS011;44011;52.218;1.480;2022-10-30T09:54:34;10.48;;;2.10;;
58214;SDS011;44011;52.218;1.480;2022-10-30T09:57:14;7.32;;;2.25;;
58214;SDS011;44011;52.218;1.480;2022-10-30T09:59:58;13.02;;;1.63;;
58214;SDS011;44011;52.218;1.480;2022-10-30T10:05:04;6.30;;;1.73;;
58214;SDS011;44011;52.218;1.480;2022-10-30T10:07:37;5.57;;;1.40;;
58214;SDS011;44011;52.218;1.480;2022-10-30T10:10:08;6.03;;;1.55;;
58214;SDS011;44011;52.218;1.480;2022-10-30T10:12:38;3.65;;;1.38;;
58214;SDS011;44011;52.218;1.480;2022-10-30T10:18:01;4.15;;;1.48;;
58214;SDS011;44011;52.218;1.480;2022-10-30T10:20:36;4.50;;;1.60;;
58214;SDS011;44011;52.218;1.480;2022-10-30T10:23:11;4.57;;;1.60;;
58214;SDS011;44011;52.218;1.480;2022-10-30T10:25:42;4.38;;;1.67;;
58214;SDS011;44011;52.218;1.480;2022-10-30T10:30:46;9.98;;;1.98;;
58214;SDS011;44011;52.218;1.480;2022-10-30T10:33:20;10.70;;;2.35;;
58214;SDS011;44011;52.218;1.480;2022-10-30T10:38:31;6.97;;;1.92;;
58214;SDS011;44011;52.218;1.480;2022-10-30T10:44:14;9.00;;;1.75;;
58214;SDS011;44011;52.218;1.480;2022-10-30T10:49:35;9.23;;;1.90;;
58214;SDS011;44011;52.218;1.480;2022-10-30T10:52:20;6.60;;;1.52;;
58214;SDS011;44011;52.218;1.480;2022-10-30T10:55:01;4.30;;;1.00;;
58214;SDS011;44011;52.218;1.480;2022-10-30T10:57:33;6.15;;;1.30;;
58214;SDS011;44011;52.218;1.480;2022-10-30T11:00:02;5.47;;;1.40;;
58214;SDS011;44011;52.218;1.480;2022-10-30T11:02:37;5.70;;;1.10;;
58214;SDS011;44011;52.218;1.480;2022-10-30T11:05:15;3.17;;;1.20;;
58214;SDS011;44011;52.218;1.480;2022-10-30T11:07:46;4.53;;;1.20;;
58214;SDS011;44011;52.218;1.480;2022-10-30T11:10:13;2.72;;;1.10;;
58214;SDS011;44011;52.218;1.480;2022-10-30T11:12:39;4.60;;;1.10;;
58214;SDS011;44011;52.218;1.480;2022-10-30T11:15:16;5.45;;;1.58;;
58214;SDS011;44011;52.218;1.480;2022-10-30T11:18:05;3.40;;;1.40;;
58214;SDS011;44011;52.218;1.480;2022-10-30T11:20:35;4.10;;;1.10;;
58214;SDS011;44011;52.218;1.480;2022-10-30T11:23:34;2.67;;;1.10;;
58214;SDS011;44011;52.218;1.480;2022-10-30T11:26:25;4.68;;;1.05;;
58214;SDS011;44011;52.218;1.480;2022-10-30T11:28:58;6.85;;;1.05;;
58214;SDS011;44011;52.218;1.480;2022-10-30T11:31:30;2.55;;;0.90;;
58214;SDS011;44011;52.218;1.480;2022-10-30T11:34:12;3.17;;;0.82;;
58214;SDS011;44011;52.218;1.480;2022-10-30T11:36:44;3.72;;;0.95;;
58214;SDS011;44011;52.218;1.480;2022-10-30T11:39:16;6.18;;;1.30;;
58214;SDS011;44011;52.218;1.480;2022-10-30T11:41:44;5.55;;;0.82;;
58214;SDS011;44011;52.218;1.480;2022-10-30T11:44:21;3.88;;;0.68;;
58214;SDS011;44011;52.218;1.480;2022-10-30T11:46:58;5.13;;;0.70;;
58214;SDS011;44011;52.218;1.480;2022-10-30T11:49:29;1.75;;;0.80;;
58214;SDS011;44011;52.218;1.480;2022-10-30T11:51:57;4.43;;;0.68;;
58214;SDS011;44011;52.218;1.480;2022-10-30T11:54:23;5.55;;;1.02;;
58214;SDS011;44011;52.218;1.480;2022-10-30T11:56:49;4.05;;;0.90;;
58214;SDS011;44011;52.218;1.480;2022-10-30T11:59:18;5.72;;;1.00;;
58214;SDS011;44011;52.218;1.480;2022-10-30T12:02:01;3.00;;;0.80;;
58214;SDS011;44011;52.218;1.480;2022-10-30T12:04:32;1.40;;;0.85;;
58214;SDS011;44011;52.218;1.480;2022-10-30T12:07:10;4.47;;;0.93;;
58214;SDS011;44011;52.218;1.480;2022-10-30T12:09:43;2.75;;;0.80;;
58214;SDS011;44011;52.218;1.480;2022-10-30T12:12:22;4.22;;;0.93;;
58214;SDS011;44011;52.218;1.480;2022-10-30T12:14:48;6.43;;;1.00;;
58214;SDS011;44011;52.218;1.480;2022-10-30T12:17:15;1.88;;;0.90;;
58214;SDS011;44011;52.218;1.480;2022-10-30T12:19:51;5.80;;;0.93;;
58214;SDS011;44011;52.218;1.480;2022-10-30T12:22:26;6.85;;;1.25;;
58214;SDS011;44011;52.218;1.480;2022-10-30T12:24:54;6.55;;;1.20;;
58214;SDS011;44011;52.218;1.480;2022-10-30T12:27:21;4.28;;;0.80;;
58214;SDS011;44011;52.218;1.480;2022-10-30T12:32:37;3.88;;;0.85;;
58214;SDS011;44011;52.218;1.480;2022-10-30T12:35:15;1.88;;;0.65;;
58214;SDS011;44011;52.218;1.480;2022-10-30T12:37:45;5.18;;;0.88;;
58214;SDS011;44011;52.218;1.480;2022-10-30T12:40:17;5.95;;;0.82;;
58214;SDS011;44011;52.218;1.480;2022-10-30T12:42:47;4.60;;;1.60;;
58214;SDS011;44011;52.218;1.480;2022-10-30T12:45:42;7.22;;;0.98;;
58214;SDS011;44011;52.218;1.480;2022-10-30T12:50:42;1.77;;;0.70;;
58214;SDS011;44011;52.218;1.480;2022-10-30T12:56:17;2.03;;;0.80;;
58214;SDS011;44011;52.218;1.480;2022-10-30T13:01:25;6.13;;;1.10;;
58214;SDS011;44011;52.218;1.480;2022-10-30T13:06:35;3.38;;;0.82;;
58214;SDS011;44011;52.218;1.480;2022-10-30T13:12:04;3.13;;;0.68;;
58214;SDS011;44011;52.218;1.480;2022-10-30T13:14:37;6.35;;;0.80;;
58214;SDS011;44011;52.218;1.480;2022-10-30T13:17:17;2.58;;;0.70;;
58214;SDS011;44011;52.218;1.480;2022-10-30T13:19:43;4.75;;;0.90;;
58214;SDS011;44011;52.218;1.480;2022-10-30T13:27:50;4.93;;;1.15;;
58214;SDS011;44011;52.218;1.480;2022-10-30T13:30:19;5.60;;;1.00;;
58214;SDS011;44011;52.218;1.480;2022-10-30T13:35:28;4.68;;;1.00;;
58214;SDS011;44011;52.218;1.480;2022-10-30T13:38:19;4.35;;;1.08;;
58214;SDS011;44011;52.218;1.480;2022-10-30T13:40:50;3.70;;;1.08;;
58214;SDS011;44011;52.218;1.480;2022-10-30T13:46:26;3.42;;;0.90;;
58214;SDS011;44011;52.218;1.480;2022-10-30T13:49:07;5.28;;;1.13;;
58214;SDS011;44011;52.218;1.480;2022-10-30T13:52:01;3.67;;;0.77;;
58214;SDS011;44011;52.218;1.480;2022-10-30T13:57:46;7.00;;;1.15;;
58214;SDS011;44011;52.218;1.480;2022-10-30T14:11:06;5.25;;;0.80;;
58214;SDS011;44011;52.218;1.480;2022-10-30T14:13:43;12.57;;;1.63;;
58214;SDS011;44011;52.218;1.480;2022-10-30T14:19:01;3.25;;;0.80;;
58214;SDS011;44011;52.218;1.480;2022-10-30T14:24:00;10.60;;;0.95;;
58214;SDS011;44011;52.218;1.480;2022-10-30T14:26:27;2.65;;;0.80;;
58214;SDS011;44011;52.218;1.480;2022-10-30T14:28:53;3.70;;;1.05;;
58214;SDS011;44011;52.218;1.480;2022-10-30T14:31:30;4.85;;;1.42;;
58214;SDS011;44011;52.218;1.480;2022-10-30T14:33:57;5.40;;;0.85;;
58214;SDS011;44011;52.218;1.480;2022-10-30T14:36:24;3.65;;;1.00;;
58214;SDS011;44011;52.218;1.480;2022-10-30T14:44:18;4.80;;;1.20;;
58214;SDS011;44011;52.218;1.480;2022-10-30T14:49:46;3.67;;;0.70;;
58214;SDS011;44011;52.218;1.480;2022-10-30T14:52:36;6.40;;;0.93;;
58214;SDS011;44011;52.218;1.480;2022-10-30T14:55:20;5.13;;;1.20;;
58214;SDS011;44011;52.218;1.480;2022-10-30T15:00:28;3.47;;;0.70;;
58214;SDS011;44011;52.218;1.480;2022-10-30T15:02:58;5.05;;;0.85;;
58214;SDS011;44011;52.218;1.480;2022-10-30T15:11:25;3.83;;;0.98;;
58214;SDS011;44011;52.218;1.480;2022-10-30T15:14:00;3.35;;;0.80;;
58214;SDS011;44011;52.218;1.480;2022-10-30T15:16:29;1.80;;;0.90;;
58214;SDS011;44011;52.218;1.480;2022-10-30T15:18:59;4.07;;;1.10;;
58214;SDS011;44011;52.218;1.480;2022-10-30T15:21:27;1.70;;;0.45;;
58214;SDS011;44011;52.218;1.480;2022-10-30T15:23:57;3.72;;;1.00;;
58214;SDS011;44011;52.218;1.480;2022-10-30T15:26:25;7.68;;;0.90;;
58214;SDS011;44011;52.218;1.480;2022-10-30T15:28:57;5.13;;;0.82;;
58214;SDS011;44011;52.218;1.480;2022-10-30T15:31:23;6.32;;;0.98;;
58214;SDS011;44011;52.218;1.480;2022-10-30T15:33:49;5.10;;;1.10;;
58214;SDS011;44011;52.218;1.480;2022-10-30T15:38:42;2.22;;;0.73;;
58214;SDS011;44011;52.218;1.480;2022-10-30T15:41:07;5.70;;;0.82;;
58214;SDS011;44011;52.218;1.480;2022-10-30T15:43:34;4.50;;;0.88;;
58214;SDS011;44011;52.218;1.480;2022-10-30T15:46:06;4.38;;;1.10;;
58214;SDS011;44011;52.218;1.480;2022-10-30T15:48:33;2.28;;;0.88;;
58214;SDS011;44011;52.218;1.480;2022-10-30T15:51:14;5.82;;;1.02;;
58214;SDS011;44011;52.218;1.480;2022-10-30T15:53:48;8.68;;;0.85;;
58214;SDS011;44011;52.218;1.480;2022-10-30T15:56:17;4.70;;;0.90;;
58214;SDS011;44011;52.218;1.480;2022-10-30T15:58:50;2.45;;;0.90;;
58214;SDS011;44011;52.218;1.480;2022-10-30T16:01:31;7.55;;;1.30;;
58214;SDS011;44011;52.218;1.480;2022-10-30T16:03:58;6.15;;;1.50;;
58214;SDS011;44011;52.218;1.480;2022-10-30T16:06:29;4.72;;;1.20;;
58214;SDS011;44011;52.218;1.480;2022-10-30T16:08:55;3.50;;;0.90;;
58214;SDS011;44011;52.218;1.480;2022-10-30T16:11:21;6.05;;;1.25;;
58214;SDS011;44011;52.218;1.480;2022-10-30T16:13:47;8.75;;;1.35;;
58214;SDS011;44011;52.218;1.480;2022-10-30T16:16:19;7.82;;;1.42;;
58214;SDS011;44011;52.218;1.480;2022-10-30T16:18:46;2.67;;;0.95;;
58214;SDS011;44011;52.218;1.480;2022-10-30T16:21:14;4.55;;;1.10;;
58214;SDS011;44011;52.218;1.480;2022-10-30T16:23:45;4.20;;;1.10;;
58214;SDS011;44011;52.218;1.480;2022-10-30T16:26:22;6.15;;;1.00;;
58214;SDS011;44011;52.218;1.480;2022-10-30T16:28:48;5.97;;;1.30;;
58214;SDS011;44011;52.218;1.480;2022-10-30T16:31:14;4.20;;;1.25;;
58214;SDS011;44011;52.218;1.480;2022-10-30T16:33:40;6.07;;;1.23;;
58214;SDS011;44011;52.218;1.480;2022-10-30T16:36:08;6.03;;;1.30;;
58214;SDS011;44011;52.218;1.480;2022-10-30T16:38:38;6.63;;;1.10;;
58214;SDS011;44011;52.218;1.480;2022-10-30T16:41:04;8.60;;;1.10;;
58214;SDS011;44011;52.218;1.480;2022-10-30T16:43:31;5.68;;;1.30;;